Hc Svea Kim — V2BB — position and weather

sailwx.info

Track history (hours):
 
Tides and Currents Weather Stations Pressure Air Temp Water Temp Dewpoint Dewpoint Depression Visibility Wind Speed Wind Dir Waves Ship Positions

Hc Svea Kim

Last reported at 2018-Apr-18 10:40 UTC. Time now 2018-Apr-22 21:49 UTC.
Position N 28°32' W 093°23'.

Length 129 m; draft 5 m.

Type: Cargo ship. MMSI: 304182000.

Date/timePositionNaut miles runAvg speedWind from/ knotsBaromVisibWave heightAir tempDewpointWater temp
2018-Apr-18 10:40N 28°32' W 093°23'211.5
2018-Apr-18 10:29N 28°33' W 093°25'1111.4
2018-Apr-18 09:30N 28°39' W 093°35'1110.9
2018-Apr-18 08:29N 28°46' W 093°45'510.6
2018-Apr-18 08:00N 28°49' W 093°50'4 8.5
2018-Apr-18 07:29N 28°52' W 093°54'510.8
2018-Apr-18 07:00N 28°54' W 093°59'610.7
2018-Apr-18 06:24N 28°58' W 094°05'1510.7
2018-Apr-18 05:00N 29°07' W 094°19'610.9
2018-Apr-18 04:29N 29°09' W 094°25'510.9
2018-Apr-18 04:00N 29°11' W 094°30'611.3
2018-Apr-18 03:30N 29°15' W 094°35'611.2
2018-Apr-18 02:59N 29°19' W 094°39'613.0
2018-Apr-18 02:30N 29°21' W 094°46'713.0
2018-Apr-18 02:00N 29°26' W 094°50'611.2
2018-Apr-18 01:30N 29°31' W 094°53'611.1
2018-Apr-18 01:00N 29°36' W 094°57'5 9.4
2018-Apr-18 00:30N 29°40' W 094°59'4 9.0
2018-Apr-18 00:01N 29°44' W 095°02'4 6.8
2018-Apr-17 23:26N 29°45' W 095°06'3 6.7
2018-Apr-17 23:00N 29°44' W 095°09'4 5.5
2018-Apr-17 22:20N 29°44' W 095°13'1 0.1
2018-Apr-17 11:33N 29°43' W 095°15'0 0.0
2018-Apr-17 10:30N 29°43' W 095°15'0 0.0
2018-Apr-17 09:21N 29°43' W 095°15'0 0.0
2018-Apr-17 08:18N 29°43' W 095°15'0 0.0
2018-Apr-17 06:57N 29°43' W 095°15'0 0.0
2018-Apr-17 06:27N 29°43' W 095°15'0 0.0
2018-Apr-17 05:54N 29°43' W 095°15'0 0.0
2018-Apr-17 05:30N 29°43' W 095°15'0 0.0
2018-Apr-17 05:00N 29°43' W 095°15'0 0.0
2018-Apr-17 04:27N 29°43' W 095°15'0 0.0
2018-Apr-16 14:03N 29°43' W 095°15'0 0.1
2018-Apr-16 13:57N 29°43' W 095°15'0 0.0
2018-Apr-16 11:00N 29°43' W 095°15'  
2018-Apr-12 16:22N 29°43' W 095°14'2 4.6
2018-Apr-12 15:54N 29°44' W 095°12'3 5.9
2018-Apr-12 15:24N 29°44' W 095°09'3 6.8
2018-Apr-12 14:58N 29°45' W 095°06'3 7.1
2018-Apr-12 14:30N 29°44' W 095°02'4 8.0
2018-Apr-12 14:00N 29°41' W 094°59'510.8
2018-Apr-12 13:30N 29°36' W 094°57'511.0
2018-Apr-12 13:00N 29°31' W 094°53'611.1
2018-Apr-12 12:30N 29°27' W 094°50'611.2
2018-Apr-12 12:00N 29°22' W 094°48'11 3.3
2018-Apr-12 08:33N 29°19' W 094°35'0 0.0
2018-Apr-12 08:27N 29°19' W 094°35'0 0.0
2018-Apr-12 08:00N 29°19' W 094°35'0 0.0
2018-Apr-12 07:30N 29°19' W 094°35'0 0.0
2018-Apr-12 07:00N 29°19' W 094°35'0 0.0
2018-Apr-12 06:30N 29°19' W 094°35'0 0.0
2018-Apr-12 06:00N 29°19' W 094°35'0 0.0
2018-Apr-12 05:30N 29°19' W 094°35'0 0.0
2018-Apr-12 05:00N 29°19' W 094°35'0 0.0
2018-Apr-12 04:30N 29°19' W 094°35'0 0.0
2018-Apr-12 03:57N 29°19' W 094°35'0 0.0
2018-Apr-12 03:30N 29°19' W 094°35'0 0.0
2018-Apr-12 02:48N 29°19' W 094°35'0 0.0
2018-Apr-12 02:30N 29°19' W 094°35'0 0.0
2018-Apr-12 02:00N 29°19' W 094°35'0 0.0
2018-Apr-12 01:27N 29°19' W 094°35'0 0.0
2018-Apr-11 20:35N 29°19' W 094°35'  
2018-Apr-09 16:10N 19°21' W 095°57'211.1
2018-Apr-09 16:00N 19°20' W 095°57'510.5
2018-Apr-09 15:29N 19°14' W 095°58'510.9
2018-Apr-09 15:01N 19°11' W 096°03'5 9.3
2018-Apr-09 14:30N 19°12' W 096°08'0 0.7
2018-Apr-09 13:58N 19°12' W 096°08'0 0.0
2018-Apr-09 13:28N 19°12' W 096°08'0 0.0
2018-Apr-09 12:55N 19°12' W 096°08'0 0.0
2018-Apr-09 12:28N 19°12' W 096°08'0 0.0
2018-Apr-09 11:58N 19°12' W 096°08'0 0.0
2018-Apr-09 11:28N 19°12' W 096°08'0 0.0
2018-Apr-09 10:58N 19°12' W 096°08'0 0.0
2018-Apr-09 10:28N 19°12' W 096°08'0 0.0
2018-Apr-09 09:58N 19°12' W 096°08'0 0.0
2018-Apr-09 09:28N 19°12' W 096°08'0 0.0
2018-Apr-09 08:58N 19°12' W 096°08'0 0.0
2018-Apr-09 08:25N 19°12' W 096°08'0 0.0
2018-Apr-09 07:58N 19°12' W 096°08'0 0.0
2018-Apr-09 07:28N 19°12' W 096°08'0 0.0
2018-Apr-09 06:58N 19°12' W 096°08'0 0.0
2018-Apr-09 06:28N 19°12' W 096°08'0 0.0
2018-Apr-09 05:58N 19°12' W 096°08'0 0.0
2018-Apr-09 05:28N 19°12' W 096°08'0 0.0
2018-Apr-09 04:58N 19°12' W 096°08'0 0.0
2018-Apr-09 04:28N 19°12' W 096°08'0 0.0
2018-Apr-09 03:58N 19°12' W 096°08'0 0.0
2018-Apr-09 03:25N 19°12' W 096°08'0 0.0
2018-Apr-09 02:58N 19°12' W 096°08'0 0.0
2018-Apr-09 02:25N 19°12' W 096°08'0 0.0
2018-Apr-09 01:58N 19°12' W 096°08'0 0.0
2018-Apr-09 01:19N 19°12' W 096°08'0 0.0
2018-Apr-09 00:58N 19°12' W 096°08'0 0.0
2018-Apr-09 00:28N 19°12' W 096°08'0 0.0
2018-Apr-08 23:58N 19°12' W 096°08'0 0.0
2018-Apr-08 23:28N 19°12' W 096°08'0 0.0
2018-Apr-08 22:58N 19°12' W 096°08'0 0.0
2018-Apr-08 22:28N 19°12' W 096°08'0 0.0
2018-Apr-08 21:58N 19°12' W 096°08'0 0.0
2018-Apr-08 21:25N 19°12' W 096°08'0 0.0
2018-Apr-08 20:58N 19°12' W 096°08'0 0.0
2018-Apr-08 20:28N 19°12' W 096°08'0 0.0
2018-Apr-08 19:52N 19°12' W 096°08'0 0.0
2018-Apr-08 19:28N 19°12' W 096°08'0 0.0
2018-Apr-08 18:58N 19°12' W 096°08'0 0.0
2018-Apr-08 18:25N 19°12' W 096°08'0 0.0
2018-Apr-08 17:58N 19°12' W 096°08'0 0.0
2018-Apr-08 17:28N 19°12' W 096°08'0 0.0
2018-Apr-08 16:58N 19°12' W 096°08'0 0.0
2018-Apr-08 16:28N 19°12' W 096°08'0 0.0
2018-Apr-08 15:55N 19°12' W 096°08'0 0.0
2018-Apr-08 15:28N 19°12' W 096°08'0 0.0
2018-Apr-08 14:55N 19°12' W 096°08'0 0.0
2018-Apr-08 14:28N 19°12' W 096°08'0 0.0
2018-Apr-08 13:58N 19°12' W 096°08'0 0.0
2018-Apr-08 13:28N 19°12' W 096°08'0 0.0
2018-Apr-08 12:58N 19°12' W 096°08'0 0.0
2018-Apr-08 12:28N 19°12' W 096°08'0 0.0
2018-Apr-08 11:58N 19°12' W 096°08'0 0.0
2018-Apr-08 11:28N 19°12' W 096°08'0 0.0
2018-Apr-08 10:58N 19°12' W 096°08'  
Track history (hours):
 
Tides and Currents Weather Stations Pressure Air Temp Water Temp Dewpoint Dewpoint Depression Visibility Wind Speed Wind Dir Waves Ship Positions

Hc Svea Kim

Last reported at 2018-Apr-18 10:40 UTC. Time now 2018-Apr-22 21:49 UTC.
Position N 28°32' W 093°23'.

Length 129 m; draft 5 m.

Type: Cargo ship. MMSI: 304182000.

Date/timePositionNaut miles runAvg speedWind from/ knotsBaromVisibWave heightAir tempDewpointWater temp
2018-Apr-18 10:40N 28°32' W 093°23'211.5
2018-Apr-18 10:29N 28°33' W 093°25'1111.4
2018-Apr-18 09:30N 28°39' W 093°35'1110.9
2018-Apr-18 08:29N 28°46' W 093°45'510.6
2018-Apr-18 08:00N 28°49' W 093°50'4 8.5
2018-Apr-18 07:29N 28°52' W 093°54'510.8
2018-Apr-18 07:00N 28°54' W 093°59'610.7
2018-Apr-18 06:24N 28°58' W 094°05'1510.7
2018-Apr-18 05:00N 29°07' W 094°19'610.9
2018-Apr-18 04:29N 29°09' W 094°25'510.9
2018-Apr-18 04:00N 29°11' W 094°30'611.3
2018-Apr-18 03:30N 29°15' W 094°35'611.2
2018-Apr-18 02:59N 29°19' W 094°39'613.0
2018-Apr-18 02:30N 29°21' W 094°46'713.0
2018-Apr-18 02:00N 29°26' W 094°50'611.2
2018-Apr-18 01:30N 29°31' W 094°53'611.1
2018-Apr-18 01:00N 29°36' W 094°57'5 9.4
2018-Apr-18 00:30N 29°40' W 094°59'4 9.0
2018-Apr-18 00:01N 29°44' W 095°02'4 6.8
2018-Apr-17 23:26N 29°45' W 095°06'3 6.7
2018-Apr-17 23:00N 29°44' W 095°09'4 5.5
2018-Apr-17 22:20N 29°44' W 095°13'1 0.1
2018-Apr-17 11:33N 29°43' W 095°15'0 0.0
2018-Apr-17 10:30N 29°43' W 095°15'0 0.0
2018-Apr-17 09:21N 29°43' W 095°15'0 0.0
2018-Apr-17 08:18N 29°43' W 095°15'0 0.0
2018-Apr-17 06:57N 29°43' W 095°15'0 0.0
2018-Apr-17 06:27N 29°43' W 095°15'0 0.0
2018-Apr-17 05:54N 29°43' W 095°15'0 0.0
2018-Apr-17 05:30N 29°43' W 095°15'0 0.0
2018-Apr-17 05:00N 29°43' W 095°15'0 0.0
2018-Apr-17 04:27N 29°43' W 095°15'0 0.0
2018-Apr-16 14:03N 29°43' W 095°15'0 0.1
2018-Apr-16 13:57N 29°43' W 095°15'0 0.0
2018-Apr-16 11:00N 29°43' W 095°15'  
2018-Apr-12 16:22N 29°43' W 095°14'2 4.6
2018-Apr-12 15:54N 29°44' W 095°12'3 5.9
2018-Apr-12 15:24N 29°44' W 095°09'3 6.8
2018-Apr-12 14:58N 29°45' W 095°06'3 7.1
2018-Apr-12 14:30N 29°44' W 095°02'4 8.0
2018-Apr-12 14:00N 29°41' W 094°59'510.8
2018-Apr-12 13:30N 29°36' W 094°57'511.0
2018-Apr-12 13:00N 29°31' W 094°53'611.1
2018-Apr-12 12:30N 29°27' W 094°50'611.2
2018-Apr-12 12:00N 29°22' W 094°48'11 3.3
2018-Apr-12 08:33N 29°19' W 094°35'0 0.0
2018-Apr-12 08:27N 29°19' W 094°35'0 0.0
2018-Apr-12 08:00N 29°19' W 094°35'0 0.0
2018-Apr-12 07:30N 29°19' W 094°35'0 0.0
2018-Apr-12 07:00N 29°19' W 094°35'0 0.0
2018-Apr-12 06:30N 29°19' W 094°35'0 0.0
2018-Apr-12 06:00N 29°19' W 094°35'0 0.0
2018-Apr-12 05:30N 29°19' W 094°35'0 0.0
2018-Apr-12 05:00N 29°19' W 094°35'0 0.0
2018-Apr-12 04:30N 29°19' W 094°35'0 0.0
2018-Apr-12 03:57N 29°19' W 094°35'0 0.0
2018-Apr-12 03:30N 29°19' W 094°35'0 0.0
2018-Apr-12 02:48N 29°19' W 094°35'0 0.0
2018-Apr-12 02:30N 29°19' W 094°35'0 0.0
2018-Apr-12 02:00N 29°19' W 094°35'0 0.0
2018-Apr-12 01:27N 29°19' W 094°35'0 0.0
2018-Apr-11 20:35N 29°19' W 094°35'  
2018-Apr-09 16:10N 19°21' W 095°57'211.1
2018-Apr-09 16:00N 19°20' W 095°57'510.5
2018-Apr-09 15:29N 19°14' W 095°58'510.9
2018-Apr-09 15:01N 19°11' W 096°03'5 9.3
2018-Apr-09 14:30N 19°12' W 096°08'0 0.7
2018-Apr-09 13:58N 19°12' W 096°08'0 0.0
2018-Apr-09 13:28N 19°12' W 096°08'0 0.0
2018-Apr-09 12:55N 19°12' W 096°08'0 0.0
2018-Apr-09 12:28N 19°12' W 096°08'0 0.0
2018-Apr-09 11:58N 19°12' W 096°08'0 0.0
2018-Apr-09 11:28N 19°12' W 096°08'0 0.0
2018-Apr-09 10:58N 19°12' W 096°08'0 0.0
2018-Apr-09 10:28N 19°12' W 096°08'0 0.0
2018-Apr-09 09:58N 19°12' W 096°08'0 0.0
2018-Apr-09 09:28N 19°12' W 096°08'0 0.0
2018-Apr-09 08:58N 19°12' W 096°08'0 0.0
2018-Apr-09 08:25N 19°12' W 096°08'0 0.0
2018-Apr-09 07:58N 19°12' W 096°08'0 0.0
2018-Apr-09 07:28N 19°12' W 096°08'0 0.0
2018-Apr-09 06:58N 19°12' W 096°08'0 0.0
2018-Apr-09 06:28N 19°12' W 096°08'0 0.0
2018-Apr-09 05:58N 19°12' W 096°08'0 0.0
2018-Apr-09 05:28N 19°12' W 096°08'0 0.0
2018-Apr-09 04:58N 19°12' W 096°08'0 0.0
2018-Apr-09 04:28N 19°12' W 096°08'0 0.0
2018-Apr-09 03:58N 19°12' W 096°08'0 0.0
2018-Apr-09 03:25N 19°12' W 096°08'0 0.0
2018-Apr-09 02:58N 19°12' W 096°08'0 0.0
2018-Apr-09 02:25N 19°12' W 096°08'0 0.0
2018-Apr-09 01:58N 19°12' W 096°08'0 0.0
2018-Apr-09 01:19N 19°12' W 096°08'0 0.0
2018-Apr-09 00:58N 19°12' W 096°08'0 0.0
2018-Apr-09 00:28N 19°12' W 096°08'0 0.0
2018-Apr-08 23:58N 19°12' W 096°08'0 0.0
2018-Apr-08 23:28N 19°12' W 096°08'0 0.0
2018-Apr-08 22:58N 19°12' W 096°08'0 0.0
2018-Apr-08 22:28N 19°12' W 096°08'0 0.0
2018-Apr-08 21:58N 19°12' W 096°08'0 0.0
2018-Apr-08 21:25N 19°12' W 096°08'0 0.0
2018-Apr-08 20:58N 19°12' W 096°08'0 0.0
2018-Apr-08 20:28N 19°12' W 096°08'0 0.0
2018-Apr-08 19:52N 19°12' W 096°08'0 0.0
2018-Apr-08 19:28N 19°12' W 096°08'0 0.0
2018-Apr-08 18:58N 19°12' W 096°08'0 0.0
2018-Apr-08 18:25N 19°12' W 096°08'0 0.0
2018-Apr-08 17:58N 19°12' W 096°08'0 0.0
2018-Apr-08 17:28N 19°12' W 096°08'0 0.0
2018-Apr-08 16:58N 19°12' W 096°08'0 0.0
2018-Apr-08 16:28N 19°12' W 096°08'0 0.0
2018-Apr-08 15:55N 19°12' W 096°08'0 0.0
2018-Apr-08 15:28N 19°12' W 096°08'0 0.0
2018-Apr-08 14:55N 19°12' W 096°08'0 0.0
2018-Apr-08 14:28N 19°12' W 096°08'0 0.0
2018-Apr-08 13:58N 19°12' W 096°08'0 0.0
2018-Apr-08 13:28N 19°12' W 096°08'0 0.0
2018-Apr-08 12:58N 19°12' W 096°08'0 0.0
2018-Apr-08 12:28N 19°12' W 096°08'0 0.0
2018-Apr-08 11:58N 19°12' W 096°08'0 0.0
2018-Apr-08 11:28N 19°12' W 096°08'0 0.0
2018-Apr-08 10:58N 19°12' W 096°08'  

Dump ship's entire track history